sensor_id;sensor_type;location;lat;lon;timestamp;temperature;humidity
21037;DHT22;10677;50.942;4.028;2023-03-24T00:01:51;13.80;99.90
21037;DHT22;10677;50.942;4.028;2023-03-24T00:04:18;13.70;99.90
21037;DHT22;10677;50.942;4.028;2023-03-24T00:06:43;13.70;99.90
21037;DHT22;10677;50.942;4.028;2023-03-24T00:09:09;13.70;99.90
21037;DHT22;10677;50.942;4.028;2023-03-24T00:11:35;13.70;99.90
21037;DHT22;10677;50.942;4.028;2023-03-24T00:14:02;13.60;99.90
21037;DHT22;10677;50.942;4.028;2023-03-24T00:16:29;13.70;99.90
21037;DHT22;10677;50.942;4.028;2023-03-24T00:18:55;13.60;99.90
21037;DHT22;10677;50.942;4.028;2023-03-24T00:21:23;13.60;99.90
21037;DHT22;10677;50.942;4.028;2023-03-24T00:23:50;13.50;99.90
21037;DHT22;10677;50.942;4.028;2023-03-24T00:26:26;13.50;99.90
21037;DHT22;10677;50.942;4.028;2023-03-24T00:28:53;13.50;99.90
21037;DHT22;10677;50.942;4.028;2023-03-24T00:31:19;13.60;99.90
21037;DHT22;10677;50.942;4.028;2023-03-24T00:33:47;13.60;99.90
21037;DHT22;10677;50.942;4.028;2023-03-24T00:36:17;13.60;99.90
21037;DHT22;10677;50.942;4.028;2023-03-24T00:38:45;13.70;99.90
21037;DHT22;10677;50.942;4.028;2023-03-24T00:41:12;13.70;99.90
21037;DHT22;10677;50.942;4.028;2023-03-24T00:43:38;13.70;99.90
21037;DHT22;10677;50.942;4.028;2023-03-24T00:46:10;13.70;99.90
21037;DHT22;10677;50.942;4.028;2023-03-24T00:48:37;13.80;99.90
21037;DHT22;10677;50.942;4.028;2023-03-24T00:51:04;13.80;99.90
21037;DHT22;10677;50.942;4.028;2023-03-24T00:53:33;13.80;99.90
21037;DHT22;10677;50.942;4.028;2023-03-24T00:56:00;13.90;99.90
21037;DHT22;10677;50.942;4.028;2023-03-24T00:58:26;13.90;99.90
21037;DHT22;10677;50.942;4.028;2023-03-24T01:00:58;13.90;99.90
21037;DHT22;10677;50.942;4.028;2023-03-24T01:03:25;14.00;99.90
21037;DHT22;10677;50.942;4.028;2023-03-24T01:05:58;14.00;99.90
21037;DHT22;10677;50.942;4.028;2023-03-24T01:08:26;14.00;99.90
21037;DHT22;10677;50.942;4.028;2023-03-24T01:10:53;14.00;99.90
21037;DHT22;10677;50.942;4.028;2023-03-24T01:13:25;14.10;99.90
21037;DHT22;10677;50.942;4.028;2023-03-24T01:15:52;14.10;99.90
21037;DHT22;10677;50.942;4.028;2023-03-24T01:18:18;14.10;99.90
21037;DHT22;10677;50.942;4.028;2023-03-24T01:20:45;14.10;99.90
21037;DHT22;10677;50.942;4.028;2023-03-24T01:23:19;14.10;99.90
21037;DHT22;10677;50.942;4.028;2023-03-24T01:25:47;14.10;99.90
21037;DHT22;10677;50.942;4.028;2023-03-24T01:28:15;14.10;99.90
21037;DHT22;10677;50.942;4.028;2023-03-24T01:30:41;14.10;99.90
21037;DHT22;10677;50.942;4.028;2023-03-24T01:33:08;14.10;99.90
21037;DHT22;10677;50.942;4.028;2023-03-24T01:35:34;14.20;99.90
21037;DHT22;10677;50.942;4.028;2023-03-24T01:38:00;14.10;99.90
21037;DHT22;10677;50.942;4.028;2023-03-24T01:40:30;14.10;99.90
21037;DHT22;10677;50.942;4.028;2023-03-24T01:42:57;14.10;99.90
21037;DHT22;10677;50.942;4.028;2023-03-24T01:48:49;13.20;99.90
21037;DHT22;10677;50.942;4.028;2023-03-24T01:51:26;12.90;99.90
21037;DHT22;10677;50.942;4.028;2023-03-24T01:56:25;12.60;99.90
21037;DHT22;10677;50.942;4.028;2023-03-24T01:59:00;12.60;99.90
21037;DHT22;10677;50.942;4.028;2023-03-24T02:01:29;12.60;99.90
21037;DHT22;10677;50.942;4.028;2023-03-24T02:03:57;12.50;99.90
21037;DHT22;10677;50.942;4.028;2023-03-24T02:06:23;12.50;99.90
21037;DHT22;10677;50.942;4.028;2023-03-24T02:08:53;12.50;99.90
21037;DHT22;10677;50.942;4.028;2023-03-24T02:11:20;12.50;99.90
21037;DHT22;10677;50.942;4.028;2023-03-24T02:13:46;12.50;99.90
21037;DHT22;10677;50.942;4.028;2023-03-24T02:16:14;12.50;99.90
21037;DHT22;10677;50.942;4.028;2023-03-24T02:19:10;12.40;99.90
21037;DHT22;10677;50.942;4.028;2023-03-24T02:27:40;11.80;99.90
21037;DHT22;10677;50.942;4.028;2023-03-24T02:33:38;11.60;99.90
21037;DHT22;10677;50.942;4.028;2023-03-24T02:45:24;11.60;99.90
21037;DHT22;10677;50.942;4.028;2023-03-24T02:53:22;11.70;99.90
21037;DHT22;10677;50.942;4.028;2023-03-24T02:56:09;11.70;99.90
21037;DHT22;10677;50.942;4.028;2023-03-24T02:58:50;11.80;99.90
21037;DHT22;10677;50.942;4.028;2023-03-24T03:01:25;11.70;99.90
21037;DHT22;10677;50.942;4.028;2023-03-24T03:04:02;11.80;99.90
21037;DHT22;10677;50.942;4.028;2023-03-24T03:06:32;11.80;99.90
21037;DHT22;10677;50.942;4.028;2023-03-24T03:09:03;11.80;99.90
21037;DHT22;10677;50.942;4.028;2023-03-24T03:11:31;11.80;99.90
21037;DHT22;10677;50.942;4.028;2023-03-24T03:14:18;11.90;99.90
21037;DHT22;10677;50.942;4.028;2023-03-24T03:16:58;11.90;99.90
21037;DHT22;10677;50.942;4.028;2023-03-24T03:19:30;11.80;99.90
21037;DHT22;10677;50.942;4.028;2023-03-24T03:21:57;11.80;99.90
21037;DHT22;10677;50.942;4.028;2023-03-24T03:24:26;11.80;99.90
21037;DHT22;10677;50.942;4.028;2023-03-24T03:27:01;11.70;99.90
21037;DHT22;10677;50.942;4.028;2023-03-24T03:29:32;11.70;99.90
21037;DHT22;10677;50.942;4.028;2023-03-24T03:32:01;11.80;99.90
21037;DHT22;10677;50.942;4.028;2023-03-24T03:39:44;11.70;99.90
21037;DHT22;10677;50.942;4.028;2023-03-24T03:42:11;11.80;99.90
21037;DHT22;10677;50.942;4.028;2023-03-24T03:44:37;11.80;99.90
21037;DHT22;10677;50.942;4.028;2023-03-24T03:47:02;11.80;99.90
21037;DHT22;10677;50.942;4.028;2023-03-24T03:49:28;11.80;99.90
21037;DHT22;10677;50.942;4.028;2023-03-24T03:51:54;11.70;99.90
21037;DHT22;10677;50.942;4.028;2023-03-24T03:54:22;11.70;99.90
21037;DHT22;10677;50.942;4.028;2023-03-24T03:56:50;11.70;99.90
21037;DHT22;10677;50.942;4.028;2023-03-24T03:59:28;11.70;99.90
21037;DHT22;10677;50.942;4.028;2023-03-24T04:01:55;11.70;99.90
21037;DHT22;10677;50.942;4.028;2023-03-24T04:18:53;11.70;99.90
21037;DHT22;10677;50.942;4.028;2023-03-24T04:24:30;11.70;99.90
21037;DHT22;10677;50.942;4.028;2023-03-24T04:27:33;11.80;99.90
21037;DHT22;10677;50.942;4.028;2023-03-24T04:30:11;11.80;99.90
21037;DHT22;10677;50.942;4.028;2023-03-24T04:33:02;11.80;99.90
21037;DHT22;10677;50.942;4.028;2023-03-24T04:35:35;11.80;99.90
21037;DHT22;10677;50.942;4.028;2023-03-24T04:38:10;11.80;99.90
21037;DHT22;10677;50.942;4.028;2023-03-24T04:40:40;11.80;99.90
21037;DHT22;10677;50.942;4.028;2023-03-24T04:43:09;11.80;99.90
21037;DHT22;10677;50.942;4.028;2023-03-24T04:45:38;11.80;99.90
21037;DHT22;10677;50.942;4.028;2023-03-24T04:48:05;11.70;99.90
21037;DHT22;10677;50.942;4.028;2023-03-24T04:50:39;11.70;99.90
21037;DHT22;10677;50.942;4.028;2023-03-24T04:53:06;11.70;99.90
21037;DHT22;10677;50.942;4.028;2023-03-24T04:58:25;11.70;99.90
21037;DHT22;10677;50.942;4.028;2023-03-24T05:00:51;11.50;99.90
21037;DHT22;10677;50.942;4.028;2023-03-24T05:03:17;11.40;99.90
21037;DHT22;10677;50.942;4.028;2023-03-24T05:05:45;11.40;99.90
21037;DHT22;10677;50.942;4.028;2023-03-24T05:08:13;11.30;99.90
21037;DHT22;10677;50.942;4.028;2023-03-24T05:10:39;11.30;99.90
21037;DHT22;10677;50.942;4.028;2023-03-24T05:13:06;11.30;99.90
21037;DHT22;10677;50.942;4.028;2023-03-24T05:15:32;11.30;99.90
21037;DHT22;10677;50.942;4.028;2023-03-24T05:17:58;11.20;99.90
21037;DHT22;10677;50.942;4.028;2023-03-24T05:20:25;11.20;99.90
21037;DHT22;10677;50.942;4.028;2023-03-24T05:22:51;11.30;99.90
21037;DHT22;10677;50.942;4.028;2023-03-24T05:25:18;11.20;99.90
21037;DHT22;10677;50.942;4.028;2023-03-24T05:27:44;11.20;99.90
21037;DHT22;10677;50.942;4.028;2023-03-24T05:30:10;11.10;99.90
21037;DHT22;10677;50.942;4.028;2023-03-24T05:32:36;11.10;99.90
21037;DHT22;10677;50.942;4.028;2023-03-24T05:35:03;11.10;99.90
21037;DHT22;10677;50.942;4.028;2023-03-24T05:37:29;11.20;99.90
21037;DHT22;10677;50.942;4.028;2023-03-24T05:39:55;11.20;99.90
21037;DHT22;10677;50.942;4.028;2023-03-24T05:42:21;11.20;99.90
21037;DHT22;10677;50.942;4.028;2023-03-24T05:44:46;11.30;99.90
21037;DHT22;10677;50.942;4.028;2023-03-24T05:47:13;11.30;99.90
21037;DHT22;10677;50.942;4.028;2023-03-24T05:49:41;11.30;99.90
21037;DHT22;10677;50.942;4.028;2023-03-24T05:52:10;11.30;99.90
21037;DHT22;10677;50.942;4.028;2023-03-24T05:54:37;11.30;99.90
21037;DHT22;10677;50.942;4.028;2023-03-24T05:57:04;11.20;99.90
21037;DHT22;10677;50.942;4.028;2023-03-24T05:59:32;11.30;99.90
21037;DHT22;10677;50.942;4.028;2023-03-24T06:01:59;11.40;99.90
21037;DHT22;10677;50.942;4.028;2023-03-24T06:04:25;11.30;99.90
21037;DHT22;10677;50.942;4.028;2023-03-24T06:06:57;11.30;99.90
21037;DHT22;10677;50.942;4.028;2023-03-24T06:09:26;11.20;99.90
21037;DHT22;10677;50.942;4.028;2023-03-24T06:12:04;11.20;99.90
21037;DHT22;10677;50.942;4.028;2023-03-24T06:14:31;11.20;99.90
21037;DHT22;10677;50.942;4.028;2023-03-24T06:16:58;11.20;99.90
21037;DHT22;10677;50.942;4.028;2023-03-24T06:19:27;11.40;99.90
21037;DHT22;10677;50.942;4.028;2023-03-24T06:21:55;11.40;99.90
21037;DHT22;10677;50.942;4.028;2023-03-24T06:24:21;11.50;99.90
21037;DHT22;10677;50.942;4.028;2023-03-24T06:26:47;11.50;99.90
21037;DHT22;10677;50.942;4.028;2023-03-24T06:29:15;11.40;99.90
21037;DHT22;10677;50.942;4.028;2023-03-24T06:31:44;11.30;99.90
21037;DHT22;10677;50.942;4.028;2023-03-24T06:34:11;11.40;99.90
21037;DHT22;10677;50.942;4.028;2023-03-24T06:36:37;11.40;99.90
21037;DHT22;10677;50.942;4.028;2023-03-24T06:39:03;11.50;99.90
21037;DHT22;10677;50.942;4.028;2023-03-24T06:41:30;11.50;99.90
21037;DHT22;10677;50.942;4.028;2023-03-24T06:43:56;11.50;99.90
21037;DHT22;10677;50.942;4.028;2023-03-24T06:46:23;11.50;99.90
21037;DHT22;10677;50.942;4.028;2023-03-24T06:48:49;11.50;99.90
21037;DHT22;10677;50.942;4.028;2023-03-24T06:51:15;11.40;99.90
21037;DHT22;10677;50.942;4.028;2023-03-24T06:53:41;11.50;99.90
21037;DHT22;10677;50.942;4.028;2023-03-24T06:56:08;11.60;99.90
21037;DHT22;10677;50.942;4.028;2023-03-24T06:58:34;11.80;99.90
21037;DHT22;10677;50.942;4.028;2023-03-24T07:01:00;11.90;99.90
21037;DHT22;10677;50.942;4.028;2023-03-24T07:03:26;11.90;99.90
21037;DHT22;10677;50.942;4.028;2023-03-24T07:05:55;12.00;99.90
21037;DHT22;10677;50.942;4.028;2023-03-24T07:08:21;11.90;99.90
21037;DHT22;10677;50.942;4.028;2023-03-24T07:10:47;11.90;99.90
21037;DHT22;10677;50.942;4.028;2023-03-24T07:13:12;11.90;99.90
21037;DHT22;10677;50.942;4.028;2023-03-24T07:15:38;12.10;99.90
21037;DHT22;10677;50.942;4.028;2023-03-24T07:18:04;12.10;99.90
21037;DHT22;10677;50.942;4.028;2023-03-24T07:20:30;12.10;99.90
21037;DHT22;10677;50.942;4.028;2023-03-24T07:22:57;12.20;99.90
21037;DHT22;10677;50.942;4.028;2023-03-24T07:25:23;12.20;99.90
21037;DHT22;10677;50.942;4.028;2023-03-24T07:27:53;12.30;99.90
21037;DHT22;10677;50.942;4.028;2023-03-24T07:30:20;12.40;99.90
21037;DHT22;10677;50.942;4.028;2023-03-24T07:32:46;12.60;99.90
21037;DHT22;10677;50.942;4.028;2023-03-24T07:35:14;12.50;99.90
21037;DHT22;10677;50.942;4.028;2023-03-24T07:37:41;12.50;99.90
21037;DHT22;10677;50.942;4.028;2023-03-24T07:40:09;12.40;99.90
21037;DHT22;10677;50.942;4.028;2023-03-24T07:42:41;12.40;99.90
21037;DHT22;10677;50.942;4.028;2023-03-24T07:45:11;12.20;99.90
21037;DHT22;10677;50.942;4.028;2023-03-24T07:47:38;12.20;99.90
21037;DHT22;10677;50.942;4.028;2023-03-24T07:50:07;12.20;99.90
21037;DHT22;10677;50.942;4.028;2023-03-24T07:52:37;12.20;99.90
21037;DHT22;10677;50.942;4.028;2023-03-24T07:55:09;12.20;99.90
21037;DHT22;10677;50.942;4.028;2023-03-24T07:57:40;12.20;99.90
21037;DHT22;10677;50.942;4.028;2023-03-24T08:00:08;12.30;99.90
21037;DHT22;10677;50.942;4.028;2023-03-24T08:02:43;12.50;99.90
21037;DHT22;10677;50.942;4.028;2023-03-24T08:05:11;12.50;99.90
21037;DHT22;10677;50.942;4.028;2023-03-24T08:07:43;12.40;99.90
21037;DHT22;10677;50.942;4.028;2023-03-24T08:10:11;12.40;99.90
21037;DHT22;10677;50.942;4.028;2023-03-24T08:12:37;12.50;99.90
21037;DHT22;10677;50.942;4.028;2023-03-24T08:15:07;12.50;99.90
21037;DHT22;10677;50.942;4.028;2023-03-24T08:17:34;12.60;99.90
21037;DHT22;10677;50.942;4.028;2023-03-24T08:20:01;12.70;99.90
21037;DHT22;10677;50.942;4.028;2023-03-24T08:22:43;12.80;99.90
21037;DHT22;10677;50.942;4.028;2023-03-24T08:25:10;12.90;99.90
21037;DHT22;10677;50.942;4.028;2023-03-24T08:27:38;13.00;99.90
21037;DHT22;10677;50.942;4.028;2023-03-24T08:30:06;13.00;99.90
21037;DHT22;10677;50.942;4.028;2023-03-24T08:32:33;13.00;99.90
21037;DHT22;10677;50.942;4.028;2023-03-24T08:34:58;13.10;99.90
21037;DHT22;10677;50.942;4.028;2023-03-24T08:37:24;13.30;99.90
21037;DHT22;10677;50.942;4.028;2023-03-24T08:39:50;13.30;99.90
21037;DHT22;10677;50.942;4.028;2023-03-24T08:42:16;13.30;99.90
21037;DHT22;10677;50.942;4.028;2023-03-24T08:44:42;13.30;99.90
21037;DHT22;10677;50.942;4.028;2023-03-24T08:47:08;13.30;99.90
21037;DHT22;10677;50.942;4.028;2023-03-24T08:49:35;13.40;99.90
21037;DHT22;10677;50.942;4.028;2023-03-24T08:52:01;13.50;99.90
21037;DHT22;10677;50.942;4.028;2023-03-24T08:54:27;13.40;99.90
21037;DHT22;10677;50.942;4.028;2023-03-24T08:56:53;13.30;99.90
21037;DHT22;10677;50.942;4.028;2023-03-24T08:59:19;13.30;99.90
21037;DHT22;10677;50.942;4.028;2023-03-24T09:01:44;13.50;99.90
21037;DHT22;10677;50.942;4.028;2023-03-24T09:04:10;13.70;99.90
21037;DHT22;10677;50.942;4.028;2023-03-24T09:06:36;13.80;99.90
21037;DHT22;10677;50.942;4.028;2023-03-24T09:09:13;14.00;99.90
21037;DHT22;10677;50.942;4.028;2023-03-24T09:11:38;14.00;99.90
21037;DHT22;10677;50.942;4.028;2023-03-24T09:14:14;14.00;99.90
21037;DHT22;10677;50.942;4.028;2023-03-24T09:16:39;14.00;99.90
21037;DHT22;10677;50.942;4.028;2023-03-24T09:19:06;14.10;99.90
21037;DHT22;10677;50.942;4.028;2023-03-24T09:21:31;14.20;99.90
21037;DHT22;10677;50.942;4.028;2023-03-24T09:23:57;14.30;99.90
21037;DHT22;10677;50.942;4.028;2023-03-24T09:26:23;14.30;99.90
21037;DHT22;10677;50.942;4.028;2023-03-24T09:28:48;14.30;99.90
21037;DHT22;10677;50.942;4.028;2023-03-24T09:31:14;14.10;99.90
21037;DHT22;10677;50.942;4.028;2023-03-24T09:33:40;14.20;99.90
21037;DHT22;10677;50.942;4.028;2023-03-24T09:36:06;14.20;99.90
21037;DHT22;10677;50.942;4.028;2023-03-24T09:38:32;14.20;99.90
21037;DHT22;10677;50.942;4.028;2023-03-24T09:41:00;14.40;99.90
21037;DHT22;10677;50.942;4.028;2023-03-24T09:43:53;14.50;99.90
21037;DHT22;10677;50.942;4.028;2023-03-24T09:48:56;14.70;99.90
21037;DHT22;10677;50.942;4.028;2023-03-24T09:51:26;14.60;99.90
21037;DHT22;10677;50.942;4.028;2023-03-24T09:56:38;14.80;99.90
21037;DHT22;10677;50.942;4.028;2023-03-24T09:59:09;15.10;99.90
21037;DHT22;10677;50.942;4.028;2023-03-24T10:01:37;15.20;99.90
21037;DHT22;10677;50.942;4.028;2023-03-24T10:04:03;15.20;99.90
21037;DHT22;10677;50.942;4.028;2023-03-24T10:06:37;15.00;99.90
21037;DHT22;10677;50.942;4.028;2023-03-24T10:14:51;15.40;99.90
21037;DHT22;10677;50.942;4.028;2023-03-24T10:20:41;14.90;99.90
21037;DHT22;10677;50.942;4.028;2023-03-24T10:31:02;14.30;99.90
21037;DHT22;10677;50.942;4.028;2023-03-24T10:33:29;14.30;99.90
21037;DHT22;10677;50.942;4.028;2023-03-24T10:36:08;14.30;99.90
21037;DHT22;10677;50.942;4.028;2023-03-24T10:38:35;14.40;99.90
21037;DHT22;10677;50.942;4.028;2023-03-24T10:41:01;14.50;99.90
21037;DHT22;10677;50.942;4.028;2023-03-24T10:43:28;14.70;99.90
21037;DHT22;10677;50.942;4.028;2023-03-24T10:45:55;14.90;99.90
21037;DHT22;10677;50.942;4.028;2023-03-24T10:49:16;14.70;99.90
21037;DHT22;10677;50.942;4.028;2023-03-24T10:51:51;14.70;99.90
21037;DHT22;10677;50.942;4.028;2023-03-24T10:54:25;14.80;99.90
21037;DHT22;10677;50.942;4.028;2023-03-24T10:57:03;14.80;99.90
21037;DHT22;10677;50.942;4.028;2023-03-24T11:04:36;13.10;99.90
21037;DHT22;10677;50.942;4.028;2023-03-24T11:07:22;12.40;99.90
21037;DHT22;10677;50.942;4.028;2023-03-24T11:12:40;11.60;99.90
21037;DHT22;10677;50.942;4.028;2023-03-24T11:15:21;11.40;99.90
21037;DHT22;10677;50.942;4.028;2023-03-24T11:18:00;11.40;99.90
21037;DHT22;10677;50.942;4.028;2023-03-24T11:20:36;11.30;99.90
21037;DHT22;10677;50.942;4.028;2023-03-24T11:23:10;11.30;99.90
21037;DHT22;10677;50.942;4.028;2023-03-24T11:25:40;11.40;99.90
21037;DHT22;10677;50.942;4.028;2023-03-24T11:28:19;11.50;99.90
21037;DHT22;10677;50.942;4.028;2023-03-24T11:30:53;11.60;99.90
21037;DHT22;10677;50.942;4.028;2023-03-24T11:33:26;11.80;99.90
21037;DHT22;10677;50.942;4.028;2023-03-24T11:35:53;12.20;99.90
21037;DHT22;10677;50.942;4.028;2023-03-24T11:38:28;12.60;99.90
21037;DHT22;10677;50.942;4.028;2023-03-24T11:40:56;12.90;99.90
21037;DHT22;10677;50.942;4.028;2023-03-24T11:43:23;13.10;99.90
21037;DHT22;10677;50.942;4.028;2023-03-24T11:46:07;13.20;99.90
21037;DHT22;10677;50.942;4.028;2023-03-24T11:48:49;13.30;99.90
21037;DHT22;10677;50.942;4.028;2023-03-24T11:51:24;13.50;99.90
21037;DHT22;10677;50.942;4.028;2023-03-24T11:53:54;13.40;99.90
21037;DHT22;10677;50.942;4.028;2023-03-24T11:56:46;13.30;99.90
21037;DHT22;10677;50.942;4.028;2023-03-24T12:10:04;12.00;99.90
21037;DHT22;10677;50.942;4.028;2023-03-24T12:13:05;11.70;99.90
21037;DHT22;10677;50.942;4.028;2023-03-24T12:21:52;11.60;99.90
21037;DHT22;10677;50.942;4.028;2023-03-24T12:30:28;12.20;99.90
21037;DHT22;10677;50.942;4.028;2023-03-24T12:44:23;13.30;99.90
21037;DHT22;10677;50.942;4.028;2023-03-24T12:47:35;13.60;99.90
21037;DHT22;10677;50.942;4.028;2023-03-24T12:53:02;14.50;99.90
21037;DHT22;10677;50.942;4.028;2023-03-24T12:58:13;14.90;99.90
21037;DHT22;10677;50.942;4.028;2023-03-24T13:00:55;14.80;99.90
21037;DHT22;10677;50.942;4.028;2023-03-24T13:04:28;14.70;99.90
21037;DHT22;10677;50.942;4.028;2023-03-24T13:09:51;14.90;99.90
21037;DHT22;10677;50.942;4.028;2023-03-24T13:12:22;14.90;99.90
21037;DHT22;10677;50.942;4.028;2023-03-24T13:17:33;15.10;99.90
21037;DHT22;10677;50.942;4.028;2023-03-24T13:20:02;15.40;99.90
21037;DHT22;10677;50.942;4.028;2023-03-24T13:22:33;15.70;99.90
21037;DHT22;10677;50.942;4.028;2023-03-24T13:25:01;15.60;99.90
21037;DHT22;10677;50.942;4.028;2023-03-24T13:27:35;15.60;99.90
21037;DHT22;10677;50.942;4.028;2023-03-24T13:30:19;15.70;99.90
21037;DHT22;10677;50.942;4.028;2023-03-24T13:32:54;15.80;99.90
21037;DHT22;10677;50.942;4.028;2023-03-24T13:41:06;15.50;99.90
21037;DHT22;10677;50.942;4.028;2023-03-24T13:43:35;15.20;99.90
21037;DHT22;10677;50.942;4.028;2023-03-24T13:46:03;15.10;99.90
21037;DHT22;10677;50.942;4.028;2023-03-24T13:56:26;16.00;99.90
21037;DHT22;10677;50.942;4.028;2023-03-24T14:01:43;16.90;99.90
21037;DHT22;10677;50.942;4.028;2023-03-24T14:04:25;17.30;99.90
21037;DHT22;10677;50.942;4.028;2023-03-24T14:06:58;17.40;99.90
21037;DHT22;10677;50.942;4.028;2023-03-24T14:09:58;17.80;99.90
21037;DHT22;10677;50.942;4.028;2023-03-24T14:12:24;18.50;99.90
21037;DHT22;10677;50.942;4.028;2023-03-24T14:15:13;18.50;99.90
21037;DHT22;10677;50.942;4.028;2023-03-24T14:17:44;19.00;99.90
21037;DHT22;10677;50.942;4.028;2023-03-24T14:20:12;19.60;99.90
21037;DHT22;10677;50.942;4.028;2023-03-24T14:22:43;20.10;99.90
21037;DHT22;10677;50.942;4.028;2023-03-24T14:27:48;21.40;99.90
21037;DHT22;10677;50.942;4.028;2023-03-24T14:32:48;20.60;99.90
21037;DHT22;10677;50.942;4.028;2023-03-24T14:35:38;20.30;99.90
21037;DHT22;10677;50.942;4.028;2023-03-24T14:40:47;20.60;99.90
21037;DHT22;10677;50.942;4.028;2023-03-24T14:43:25;20.80;99.90
21037;DHT22;10677;50.942;4.028;2023-03-24T14:49:39;18.90;99.90
21037;DHT22;10677;50.942;4.028;2023-03-24T14:54:37;18.40;99.90
21037;DHT22;10677;50.942;4.028;2023-03-24T14:57:05;18.70;99.90
21037;DHT22;10677;50.942;4.028;2023-03-24T15:02:19;18.00;99.90
21037;DHT22;10677;50.942;4.028;2023-03-24T15:05:15;17.30;99.90
21037;DHT22;10677;50.942;4.028;2023-03-24T15:07:42;16.80;99.90
21037;DHT22;10677;50.942;4.028;2023-03-24T15:10:16;17.10;99.90
21037;DHT22;10677;50.942;4.028;2023-03-24T15:12:46;18.40;99.90
21037;DHT22;10677;50.942;4.028;2023-03-24T15:15:18;19.20;99.90
21037;DHT22;10677;50.942;4.028;2023-03-24T15:17:44;18.90;99.90
21037;DHT22;10677;50.942;4.028;2023-03-24T15:20:28;18.70;99.90
21037;DHT22;10677;50.942;4.028;2023-03-24T15:23:07;18.20;99.90
21037;DHT22;10677;50.942;4.028;2023-03-24T15:25:33;17.60;99.90
21037;DHT22;10677;50.942;4.028;2023-03-24T15:27:58;17.30;99.90
21037;DHT22;10677;50.942;4.028;2023-03-24T15:30:24;17.00;99.90
21037;DHT22;10677;50.942;4.028;2023-03-24T15:32:50;16.80;99.90
21037;DHT22;10677;50.942;4.028;2023-03-24T15:35:23;16.50;99.90
21037;DHT22;10677;50.942;4.028;2023-03-24T15:37:51;16.40;99.90
21037;DHT22;10677;50.942;4.028;2023-03-24T15:42:58;16.20;99.90
21037;DHT22;10677;50.942;4.028;2023-03-24T15:45:30;16.20;99.90
21037;DHT22;10677;50.942;4.028;2023-03-24T15:48:01;16.30;99.90
21037;DHT22;10677;50.942;4.028;2023-03-24T15:50:35;16.20;99.90
21037;DHT22;10677;50.942;4.028;2023-03-24T15:53:25;16.00;99.90
21037;DHT22;10677;50.942;4.028;2023-03-24T15:56:02;15.80;99.90
21037;DHT22;10677;50.942;4.028;2023-03-24T15:58:29;15.70;99.90
21037;DHT22;10677;50.942;4.028;2023-03-24T16:00:59;15.70;99.90
21037;DHT22;10677;50.942;4.028;2023-03-24T16:03:28;15.60;99.90
21037;DHT22;10677;50.942;4.028;2023-03-24T16:05:55;15.50;99.90
21037;DHT22;10677;50.942;4.028;2023-03-24T16:08:28;15.30;99.90
21037;DHT22;10677;50.942;4.028;2023-03-24T16:11:04;15.10;99.90
21037;DHT22;10677;50.942;4.028;2023-03-24T16:13:33;14.90;99.90
21037;DHT22;10677;50.942;4.028;2023-03-24T16:16:05;14.90;99.90
21037;DHT22;10677;50.942;4.028;2023-03-24T16:18:36;14.80;99.90
21037;DHT22;10677;50.942;4.028;2023-03-24T16:21:10;14.80;99.90
21037;DHT22;10677;50.942;4.028;2023-03-24T16:23:36;14.80;99.90
21037;DHT22;10677;50.942;4.028;2023-03-24T16:26:02;14.90;99.90
21037;DHT22;10677;50.942;4.028;2023-03-24T16:28:28;15.10;99.90
21037;DHT22;10677;50.942;4.028;2023-03-24T16:31:02;15.00;99.90
21037;DHT22;10677;50.942;4.028;2023-03-24T16:33:28;15.00;99.90
21037;DHT22;10677;50.942;4.028;2023-03-24T16:35:58;14.90;99.90
21037;DHT22;10677;50.942;4.028;2023-03-24T16:38:25;14.70;99.90
21037;DHT22;10677;50.942;4.028;2023-03-24T16:40:53;14.50;99.90
21037;DHT22;10677;50.942;4.028;2023-03-24T16:43:19;14.20;99.90
21037;DHT22;10677;50.942;4.028;2023-03-24T16:45:49;13.90;99.90
21037;DHT22;10677;50.942;4.028;2023-03-24T16:48:15;13.80;99.90
21037;DHT22;10677;50.942;4.028;2023-03-24T16:50:47;13.70;99.90
21037;DHT22;10677;50.942;4.028;2023-03-24T16:53:14;13.80;99.90
21037;DHT22;10677;50.942;4.028;2023-03-24T16:55:40;13.80;99.90
21037;DHT22;10677;50.942;4.028;2023-03-24T16:58:07;13.90;99.90
21037;DHT22;10677;50.942;4.028;2023-03-24T17:00:35;13.80;99.90
21037;DHT22;10677;50.942;4.028;2023-03-24T17:03:02;13.70;99.90
21037;DHT22;10677;50.942;4.028;2023-03-24T17:05:34;13.60;99.90
21037;DHT22;10677;50.942;4.028;2023-03-24T17:08:01;13.50;99.90
21037;DHT22;10677;50.942;4.028;2023-03-24T17:10:27;13.60;99.90
21037;DHT22;10677;50.942;4.028;2023-03-24T17:12:54;13.70;99.90
21037;DHT22;10677;50.942;4.028;2023-03-24T17:15:26;13.70;99.90
21037;DHT22;10677;50.942;4.028;2023-03-24T17:17:53;13.60;99.90
21037;DHT22;10677;50.942;4.028;2023-03-24T17:20:20;13.50;99.90
21037;DHT22;10677;50.942;4.028;2023-03-24T17:22:48;13.40;99.90
21037;DHT22;10677;50.942;4.028;2023-03-24T17:25:16;13.40;99.90
21037;DHT22;10677;50.942;4.028;2023-03-24T17:27:43;13.30;99.90
21037;DHT22;10677;50.942;4.028;2023-03-24T17:30:15;13.30;99.90
21037;DHT22;10677;50.942;4.028;2023-03-24T17:32:41;13.40;99.90
21037;DHT22;10677;50.942;4.028;2023-03-24T17:35:13;13.30;99.90
21037;DHT22;10677;50.942;4.028;2023-03-24T17:37:39;13.40;99.90
21037;DHT22;10677;50.942;4.028;2023-03-24T17:40:06;13.40;99.90
21037;DHT22;10677;50.942;4.028;2023-03-24T17:42:36;13.40;99.90
21037;DHT22;10677;50.942;4.028;2023-03-24T17:45:03;13.30;99.90
21037;DHT22;10677;50.942;4.028;2023-03-24T17:47:29;13.20;99.90
21037;DHT22;10677;50.942;4.028;2023-03-24T17:49:55;13.20;99.90
21037;DHT22;10677;50.942;4.028;2023-03-24T17:52:21;13.10;99.90
21037;DHT22;10677;50.942;4.028;2023-03-24T17:54:47;13.00;99.90
21037;DHT22;10677;50.942;4.028;2023-03-24T17:57:12;12.80;99.90
21037;DHT22;10677;50.942;4.028;2023-03-24T17:59:38;12.70;99.90
21037;DHT22;10677;50.942;4.028;2023-03-24T18:02:04;12.60;99.90
21037;DHT22;10677;50.942;4.028;2023-03-24T18:04:31;12.60;99.90
21037;DHT22;10677;50.942;4.028;2023-03-24T18:06:57;12.50;99.90
21037;DHT22;10677;50.942;4.028;2023-03-24T18:09:24;12.50;99.90
21037;DHT22;10677;50.942;4.028;2023-03-24T18:11:51;12.40;99.90
21037;DHT22;10677;50.942;4.028;2023-03-24T18:14:17;12.30;99.90
21037;DHT22;10677;50.942;4.028;2023-03-24T18:16:43;12.30;99.90
21037;DHT22;10677;50.942;4.028;2023-03-24T18:19:08;12.30;99.90
21037;DHT22;10677;50.942;4.028;2023-03-24T18:21:34;12.20;99.90
21037;DHT22;10677;50.942;4.028;2023-03-24T18:24:00;12.10;99.90
21037;DHT22;10677;50.942;4.028;2023-03-24T18:26:25;12.00;99.90
21037;DHT22;10677;50.942;4.028;2023-03-24T18:28:51;12.10;99.90
21037;DHT22;10677;50.942;4.028;2023-03-24T18:31:19;12.10;99.90
21037;DHT22;10677;50.942;4.028;2023-03-24T18:33:46;12.10;99.90
21037;DHT22;10677;50.942;4.028;2023-03-24T18:36:14;12.10;99.90